Terminal Aerodrome Forecast
Issued by NWS Sioux Falls, SD

Home | Current Version | Previous Version | Text Only | Print | Product List | Glossary On
Versions: 1 2 3 4 5 6 7 8 9 10 11 12 13 14 15 16 17 18 19 20 21 22 23 24 25 26 27 28 29 30 31
000
FTUS43 KFSD 251132
TAFSUX
TAF
KSUX 251132Z 2512/2612 34008KT P6SM BKN010
     FM251300 35009KT 6SM RA OVC010
     FM251700 01012KT 4SM RA OVC010
     FM260000 35013G21KT 5SM -RA OVC008
     FM260600 33016G25KT P6SM OVC008=

USA.gov is the U.S. government's official web portal to all federal, state and local government web resources and services.